sensor_id;sensor_type;location;lat;lon;timestamp;P1;durP1;ratioP1;P2;durP2;ratioP2
19191;SDS011;9728;48.194;16.346;2023-03-01T00:04:11;10.27;;;6.27;;
19191;SDS011;9728;48.194;16.346;2023-03-01T00:09:14;11.37;;;6.50;;
19191;SDS011;9728;48.194;16.346;2023-03-01T00:14:18;11.77;;;6.87;;
19191;SDS011;9728;48.194;16.346;2023-03-01T00:19:26;11.13;;;6.67;;
19191;SDS011;9728;48.194;16.346;2023-03-01T00:24:30;11.50;;;6.73;;
19191;SDS011;9728;48.194;16.346;2023-03-01T00:29:36;10.83;;;6.13;;
19191;SDS011;9728;48.194;16.346;2023-03-01T00:34:41;10.63;;;6.70;;
19191;SDS011;9728;48.194;16.346;2023-03-01T00:39:55;10.97;;;6.33;;
19191;SDS011;9728;48.194;16.346;2023-03-01T00:44:59;10.77;;;6.90;;
19191;SDS011;9728;48.194;16.346;2023-03-01T00:50:04;12.13;;;7.70;;
19191;SDS011;9728;48.194;16.346;2023-03-01T00:55:09;10.87;;;6.93;;
19191;SDS011;9728;48.194;16.346;2023-03-01T01:00:14;10.20;;;6.37;;
19191;SDS011;9728;48.194;16.346;2023-03-01T01:05:19;13.93;;;7.23;;
19191;SDS011;9728;48.194;16.346;2023-03-01T01:10:23;11.00;;;6.97;;
19191;SDS011;9728;48.194;16.346;2023-03-01T01:15:27;11.70;;;7.20;;
19191;SDS011;9728;48.194;16.346;2023-03-01T01:20:32;11.70;;;6.80;;
19191;SDS011;9728;48.194;16.346;2023-03-01T01:25:37;12.50;;;7.23;;
19191;SDS011;9728;48.194;16.346;2023-03-01T01:30:42;12.30;;;7.37;;
19191;SDS011;9728;48.194;16.346;2023-03-01T01:35:48;10.73;;;6.80;;
19191;SDS011;9728;48.194;16.346;2023-03-01T01:40:52;9.77;;;6.30;;
19191;SDS011;9728;48.194;16.346;2023-03-01T01:45:55;10.07;;;6.53;;
19191;SDS011;9728;48.194;16.346;2023-03-01T01:51:03;11.03;;;6.80;;
19191;SDS011;9728;48.194;16.346;2023-03-01T01:56:07;11.40;;;6.57;;
19191;SDS011;9728;48.194;16.346;2023-03-01T02:01:15;14.23;;;7.90;;
19191;SDS011;9728;48.194;16.346;2023-03-01T02:06:21;11.90;;;7.17;;
19191;SDS011;9728;48.194;16.346;2023-03-01T02:11:31;11.40;;;7.13;;
19191;SDS011;9728;48.194;16.346;2023-03-01T02:16:35;11.43;;;6.27;;
19191;SDS011;9728;48.194;16.346;2023-03-01T02:21:43;12.17;;;7.00;;
19191;SDS011;9728;48.194;16.346;2023-03-01T02:26:57;13.70;;;7.40;;
19191;SDS011;9728;48.194;16.346;2023-03-01T02:32:04;9.97;;;6.37;;
19191;SDS011;9728;48.194;16.346;2023-03-01T02:37:09;13.70;;;7.60;;
19191;SDS011;9728;48.194;16.346;2023-03-01T02:42:17;12.07;;;7.13;;
19191;SDS011;9728;48.194;16.346;2023-03-01T02:47:29;11.50;;;7.10;;
19191;SDS011;9728;48.194;16.346;2023-03-01T02:52:34;10.93;;;7.00;;
19191;SDS011;9728;48.194;16.346;2023-03-01T02:57:47;12.53;;;7.67;;
19191;SDS011;9728;48.194;16.346;2023-03-01T03:02:54;14.30;;;8.07;;
19191;SDS011;9728;48.194;16.346;2023-03-01T03:08:02;14.47;;;8.23;;
19191;SDS011;9728;48.194;16.346;2023-03-01T03:13:10;13.93;;;8.37;;
19191;SDS011;9728;48.194;16.346;2023-03-01T03:18:17;13.80;;;7.90;;
19191;SDS011;9728;48.194;16.346;2023-03-01T03:23:21;14.83;;;8.17;;
19191;SDS011;9728;48.194;16.346;2023-03-01T03:28:25;10.67;;;6.40;;
19191;SDS011;9728;48.194;16.346;2023-03-01T03:33:31;13.47;;;7.40;;
19191;SDS011;9728;48.194;16.346;2023-03-01T03:38:34;12.50;;;8.07;;
19191;SDS011;9728;48.194;16.346;2023-03-01T03:43:40;14.40;;;8.23;;
19191;SDS011;9728;48.194;16.346;2023-03-01T03:48:46;14.27;;;7.73;;
19191;SDS011;9728;48.194;16.346;2023-03-01T03:53:56;11.97;;;7.73;;
19191;SDS011;9728;48.194;16.346;2023-03-01T03:59:04;13.47;;;6.77;;
19191;SDS011;9728;48.194;16.346;2023-03-01T04:04:14;12.30;;;8.10;;
19191;SDS011;9728;48.194;16.346;2023-03-01T04:09:20;12.60;;;7.60;;
19191;SDS011;9728;48.194;16.346;2023-03-01T04:14:23;10.63;;;6.83;;
19191;SDS011;9728;48.194;16.346;2023-03-01T04:19:29;12.10;;;6.83;;
19191;SDS011;9728;48.194;16.346;2023-03-01T04:24:37;14.83;;;8.87;;
19191;SDS011;9728;48.194;16.346;2023-03-01T04:29:41;13.90;;;7.50;;
19191;SDS011;9728;48.194;16.346;2023-03-01T04:34:46;15.20;;;7.97;;
19191;SDS011;9728;48.194;16.346;2023-03-01T04:39:49;15.33;;;8.97;;
19191;SDS011;9728;48.194;16.346;2023-03-01T04:44:53;14.63;;;9.07;;
19191;SDS011;9728;48.194;16.346;2023-03-01T04:49:58;12.57;;;7.53;;
19191;SDS011;9728;48.194;16.346;2023-03-01T04:55:02;13.30;;;7.83;;
19191;SDS011;9728;48.194;16.346;2023-03-01T05:00:08;13.87;;;7.40;;
19191;SDS011;9728;48.194;16.346;2023-03-01T05:05:25;13.30;;;8.30;;
19191;SDS011;9728;48.194;16.346;2023-03-01T05:10:31;14.87;;;7.87;;
19191;SDS011;9728;48.194;16.346;2023-03-01T05:15:36;14.10;;;7.70;;
19191;SDS011;9728;48.194;16.346;2023-03-01T05:20:41;12.13;;;7.97;;
19191;SDS011;9728;48.194;16.346;2023-03-01T05:25:46;15.03;;;8.50;;
19191;SDS011;9728;48.194;16.346;2023-03-01T05:30:53;13.47;;;7.77;;
19191;SDS011;9728;48.194;16.346;2023-03-01T05:36:00;15.57;;;8.03;;
19191;SDS011;9728;48.194;16.346;2023-03-01T05:41:04;13.50;;;7.87;;
19191;SDS011;9728;48.194;16.346;2023-03-01T05:46:07;12.40;;;7.57;;
19191;SDS011;9728;48.194;16.346;2023-03-01T05:51:15;14.70;;;8.13;;
19191;SDS011;9728;48.194;16.346;2023-03-01T05:56:19;14.70;;;7.33;;
19191;SDS011;9728;48.194;16.346;2023-03-01T06:01:23;16.07;;;8.60;;
19191;SDS011;9728;48.194;16.346;2023-03-01T06:06:28;13.97;;;7.73;;
19191;SDS011;9728;48.194;16.346;2023-03-01T06:11:33;12.70;;;8.03;;
19191;SDS011;9728;48.194;16.346;2023-03-01T06:16:40;13.77;;;8.17;;
19191;SDS011;9728;48.194;16.346;2023-03-01T06:21:44;15.30;;;8.33;;
19191;SDS011;9728;48.194;16.346;2023-03-01T06:26:48;12.67;;;7.30;;
19191;SDS011;9728;48.194;16.346;2023-03-01T06:31:58;16.97;;;8.30;;
19191;SDS011;9728;48.194;16.346;2023-03-01T06:37:03;17.53;;;9.37;;
19191;SDS011;9728;48.194;16.346;2023-03-01T06:42:19;13.70;;;7.73;;
19191;SDS011;9728;48.194;16.346;2023-03-01T06:47:22;13.47;;;7.53;;
19191;SDS011;9728;48.194;16.346;2023-03-01T06:52:30;13.23;;;7.77;;
19191;SDS011;9728;48.194;16.346;2023-03-01T06:57:34;16.67;;;9.00;;
19191;SDS011;9728;48.194;16.346;2023-03-01T07:02:37;14.17;;;8.47;;
19191;SDS011;9728;48.194;16.346;2023-03-01T07:07:43;13.60;;;8.33;;
19191;SDS011;9728;48.194;16.346;2023-03-01T07:12:46;16.23;;;8.83;;
19191;SDS011;9728;48.194;16.346;2023-03-01T07:17:50;15.67;;;9.07;;
19191;SDS011;9728;48.194;16.346;2023-03-01T07:22:55;15.23;;;8.60;;
19191;SDS011;9728;48.194;16.346;2023-03-01T07:28:00;13.97;;;8.00;;
19191;SDS011;9728;48.194;16.346;2023-03-01T07:33:03;16.17;;;9.23;;
19191;SDS011;9728;48.194;16.346;2023-03-01T07:38:08;13.87;;;8.30;;
19191;SDS011;9728;48.194;16.346;2023-03-01T07:43:12;13.37;;;7.27;;
19191;SDS011;9728;48.194;16.346;2023-03-01T07:48:15;12.83;;;7.47;;
19191;SDS011;9728;48.194;16.346;2023-03-01T07:53:20;15.13;;;7.83;;
19191;SDS011;9728;48.194;16.346;2023-03-01T07:58:24;15.67;;;7.77;;
19191;SDS011;9728;48.194;16.346;2023-03-01T08:03:27;13.10;;;7.57;;
19191;SDS011;9728;48.194;16.346;2023-03-01T08:08:33;13.50;;;7.87;;
19191;SDS011;9728;48.194;16.346;2023-03-01T08:13:37;15.70;;;8.40;;
19191;SDS011;9728;48.194;16.346;2023-03-01T08:18:41;13.53;;;8.57;;
19191;SDS011;9728;48.194;16.346;2023-03-01T08:23:46;13.70;;;7.60;;
19191;SDS011;9728;48.194;16.346;2023-03-01T08:28:50;14.00;;;7.87;;
19191;SDS011;9728;48.194;16.346;2023-03-01T08:33:58;15.57;;;8.23;;
19191;SDS011;9728;48.194;16.346;2023-03-01T08:39:04;14.27;;;7.73;;
19191;SDS011;9728;48.194;16.346;2023-03-01T08:44:09;14.87;;;8.80;;
19191;SDS011;9728;48.194;16.346;2023-03-01T08:49:14;13.70;;;7.73;;
19191;SDS011;9728;48.194;16.346;2023-03-01T08:54:21;14.43;;;8.50;;
19191;SDS011;9728;48.194;16.346;2023-03-01T08:59:25;14.53;;;8.77;;
19191;SDS011;9728;48.194;16.346;2023-03-01T09:04:30;11.03;;;6.90;;
19191;SDS011;9728;48.194;16.346;2023-03-01T09:09:36;16.93;;;9.23;;
19191;SDS011;9728;48.194;16.346;2023-03-01T09:14:40;16.93;;;9.23;;
19191;SDS011;9728;48.194;16.346;2023-03-01T09:19:44;13.07;;;7.40;;
19191;SDS011;9728;48.194;16.346;2023-03-01T09:24:49;14.03;;;7.53;;
19191;SDS011;9728;48.194;16.346;2023-03-01T09:29:52;15.60;;;8.97;;
19191;SDS011;9728;48.194;16.346;2023-03-01T09:34:57;14.80;;;8.27;;
19191;SDS011;9728;48.194;16.346;2023-03-01T09:40:10;13.57;;;7.63;;
19191;SDS011;9728;48.194;16.346;2023-03-01T09:45:20;14.10;;;7.87;;
19191;SDS011;9728;48.194;16.346;2023-03-01T09:50:32;14.13;;;7.33;;
19191;SDS011;9728;48.194;16.346;2023-03-01T09:55:42;12.03;;;6.73;;
19191;SDS011;9728;48.194;16.346;2023-03-01T10:00:47;10.60;;;6.33;;
19191;SDS011;9728;48.194;16.346;2023-03-01T10:06:02;10.77;;;6.70;;
19191;SDS011;9728;48.194;16.346;2023-03-01T10:11:19;12.37;;;6.87;;
19191;SDS011;9728;48.194;16.346;2023-03-01T10:16:38;11.70;;;6.37;;
19191;SDS011;9728;48.194;16.346;2023-03-01T10:21:49;9.90;;;5.97;;
19191;SDS011;9728;48.194;16.346;2023-03-01T10:26:56;13.00;;;7.00;;
19191;SDS011;9728;48.194;16.346;2023-03-01T10:32:04;9.83;;;6.30;;
19191;SDS011;9728;48.194;16.346;2023-03-01T10:37:09;10.77;;;6.63;;
19191;SDS011;9728;48.194;16.346;2023-03-01T10:42:21;10.70;;;6.50;;
19191;SDS011;9728;48.194;16.346;2023-03-01T10:47:29;11.63;;;6.97;;
19191;SDS011;9728;48.194;16.346;2023-03-01T10:52:33;10.73;;;6.07;;
19191;SDS011;9728;48.194;16.346;2023-03-01T10:57:39;10.20;;;5.83;;
19191;SDS011;9728;48.194;16.346;2023-03-01T11:02:43;10.30;;;6.60;;
19191;SDS011;9728;48.194;16.346;2023-03-01T11:07:50;10.77;;;5.77;;
19191;SDS011;9728;48.194;16.346;2023-03-01T11:13:07;8.07;;;5.17;;
19191;SDS011;9728;48.194;16.346;2023-03-01T11:18:19;9.03;;;5.07;;
19191;SDS011;9728;48.194;16.346;2023-03-01T11:23:37;11.68;;;6.03;;
19191;SDS011;9728;48.194;16.346;2023-03-01T11:28:43;8.00;;;5.57;;
19191;SDS011;9728;48.194;16.346;2023-03-01T11:33:53;10.57;;;6.00;;
19191;SDS011;9728;48.194;16.346;2023-03-01T11:39:02;10.52;;;5.97;;
19191;SDS011;9728;48.194;16.346;2023-03-01T11:44:18;13.13;;;6.30;;
19191;SDS011;9728;48.194;16.346;2023-03-01T11:49:31;13.57;;;6.88;;
19191;SDS011;9728;48.194;16.346;2023-03-01T11:54:48;10.07;;;5.68;;
19191;SDS011;9728;48.194;16.346;2023-03-01T12:00:05;11.05;;;6.15;;
19191;SDS011;9728;48.194;16.346;2023-03-01T12:05:24;12.52;;;7.22;;
19191;SDS011;9728;48.194;16.346;2023-03-01T12:10:50;8.43;;;5.25;;
19191;SDS011;9728;48.194;16.346;2023-03-01T12:21:43;9.93;;;5.73;;
19191;SDS011;9728;48.194;16.346;2023-03-01T12:27:00;8.73;;;5.07;;
19191;SDS011;9728;48.194;16.346;2023-03-01T12:32:31;6.70;;;4.63;;
19191;SDS011;9728;48.194;16.346;2023-03-01T12:37:49;10.27;;;6.30;;
19191;SDS011;9728;48.194;16.346;2023-03-01T12:43:03;10.55;;;6.90;;
19191;SDS011;9728;48.194;16.346;2023-03-01T12:48:26;9.13;;;6.18;;
19191;SDS011;9728;48.194;16.346;2023-03-01T12:53:44;7.60;;;5.60;;
19191;SDS011;9728;48.194;16.346;2023-03-01T12:58:51;9.48;;;5.32;;
19191;SDS011;9728;48.194;16.346;2023-03-01T13:04:08;7.57;;;5.25;;
19191;SDS011;9728;48.194;16.346;2023-03-01T13:09:20;10.35;;;5.82;;
19191;SDS011;9728;48.194;16.346;2023-03-01T13:14:44;12.07;;;6.00;;
19191;SDS011;9728;48.194;16.346;2023-03-01T13:19:57;9.40;;;5.60;;
19191;SDS011;9728;48.194;16.346;2023-03-01T13:25:02;8.75;;;5.50;;
19191;SDS011;9728;48.194;16.346;2023-03-01T13:35:45;9.10;;;5.50;;
19191;SDS011;9728;48.194;16.346;2023-03-01T13:40:59;10.85;;;6.03;;
19191;SDS011;9728;48.194;16.346;2023-03-01T13:46:07;10.93;;;6.50;;
19191;SDS011;9728;48.194;16.346;2023-03-01T13:51:22;9.75;;;6.10;;
19191;SDS011;9728;48.194;16.346;2023-03-01T13:56:28;7.47;;;4.75;;
19191;SDS011;9728;48.194;16.346;2023-03-01T14:01:39;8.98;;;5.05;;
19191;SDS011;9728;48.194;16.346;2023-03-01T14:06:45;8.10;;;5.03;;
19191;SDS011;9728;48.194;16.346;2023-03-01T14:11:59;8.20;;;5.35;;
19191;SDS011;9728;48.194;16.346;2023-03-01T14:17:27;9.30;;;5.93;;
19191;SDS011;9728;48.194;16.346;2023-03-01T14:22:47;8.85;;;5.28;;
19191;SDS011;9728;48.194;16.346;2023-03-01T14:27:59;6.45;;;4.60;;
19191;SDS011;9728;48.194;16.346;2023-03-01T14:33:17;9.10;;;5.22;;
19191;SDS011;9728;48.194;16.346;2023-03-01T14:38:28;8.98;;;5.45;;
19191;SDS011;9728;48.194;16.346;2023-03-01T14:43:36;9.27;;;5.88;;
19191;SDS011;9728;48.194;16.346;2023-03-01T14:48:41;9.18;;;5.57;;
19191;SDS011;9728;48.194;16.346;2023-03-01T14:53:46;7.90;;;5.15;;
19191;SDS011;9728;48.194;16.346;2023-03-01T14:58:52;8.82;;;5.28;;
19191;SDS011;9728;48.194;16.346;2023-03-01T15:03:56;10.00;;;5.95;;
19191;SDS011;9728;48.194;16.346;2023-03-01T15:09:01;8.80;;;5.75;;
19191;SDS011;9728;48.194;16.346;2023-03-01T15:19:52;11.88;;;6.90;;
19191;SDS011;9728;48.194;16.346;2023-03-01T15:24:57;11.63;;;6.47;;
19191;SDS011;9728;48.194;16.346;2023-03-01T15:30:01;11.95;;;6.40;;
19191;SDS011;9728;48.194;16.346;2023-03-01T15:40:49;10.30;;;5.68;;
19191;SDS011;9728;48.194;16.346;2023-03-01T15:45:55;9.55;;;5.85;;
19191;SDS011;9728;48.194;16.346;2023-03-01T15:51:00;12.65;;;6.70;;
19191;SDS011;9728;48.194;16.346;2023-03-01T15:56:05;10.80;;;6.07;;
19191;SDS011;9728;48.194;16.346;2023-03-01T16:01:10;10.77;;;6.40;;
19191;SDS011;9728;48.194;16.346;2023-03-01T16:06:16;10.60;;;5.93;;
19191;SDS011;9728;48.194;16.346;2023-03-01T16:11:21;10.18;;;5.90;;
19191;SDS011;9728;48.194;16.346;2023-03-01T16:16:24;10.90;;;6.50;;
19191;SDS011;9728;48.194;16.346;2023-03-01T16:21:28;9.52;;;5.30;;
19191;SDS011;9728;48.194;16.346;2023-03-01T16:26:34;7.97;;;5.63;;
19191;SDS011;9728;48.194;16.346;2023-03-01T16:31:39;11.15;;;6.20;;
19191;SDS011;9728;48.194;16.346;2023-03-01T16:36:43;8.00;;;5.05;;
19191;SDS011;9728;48.194;16.346;2023-03-01T16:41:51;8.45;;;6.07;;
19191;SDS011;9728;48.194;16.346;2023-03-01T16:46:56;9.53;;;5.80;;
19191;SDS011;9728;48.194;16.346;2023-03-01T16:52:01;9.17;;;5.77;;
19191;SDS011;9728;48.194;16.346;2023-03-01T16:57:06;11.10;;;6.20;;
19191;SDS011;9728;48.194;16.346;2023-03-01T17:02:09;9.47;;;5.10;;
19191;SDS011;9728;48.194;16.346;2023-03-01T17:07:14;11.87;;;6.53;;
19191;SDS011;9728;48.194;16.346;2023-03-01T17:12:19;10.15;;;5.53;;
19191;SDS011;9728;48.194;16.346;2023-03-01T17:17:23;16.07;;;7.00;;
19191;SDS011;9728;48.194;16.346;2023-03-01T17:22:26;9.97;;;6.30;;
19191;SDS011;9728;48.194;16.346;2023-03-01T17:27:32;10.13;;;4.93;;
19191;SDS011;9728;48.194;16.346;2023-03-01T17:32:36;9.43;;;5.80;;
19191;SDS011;9728;48.194;16.346;2023-03-01T17:37:41;13.07;;;6.28;;
19191;SDS011;9728;48.194;16.346;2023-03-01T17:42:49;10.38;;;5.95;;
19191;SDS011;9728;48.194;16.346;2023-03-01T17:47:55;11.43;;;6.37;;
19191;SDS011;9728;48.194;16.346;2023-03-01T17:52:59;10.63;;;6.20;;
19191;SDS011;9728;48.194;16.346;2023-03-01T17:58:12;12.75;;;7.10;;
19191;SDS011;9728;48.194;16.346;2023-03-01T18:03:16;9.70;;;6.13;;
19191;SDS011;9728;48.194;16.346;2023-03-01T18:08:24;10.73;;;5.97;;
19191;SDS011;9728;48.194;16.346;2023-03-01T18:13:30;11.60;;;6.85;;
19191;SDS011;9728;48.194;16.346;2023-03-01T18:18:35;12.02;;;6.50;;
19191;SDS011;9728;48.194;16.346;2023-03-01T18:23:40;10.45;;;5.78;;
19191;SDS011;9728;48.194;16.346;2023-03-01T18:28:45;11.13;;;6.43;;
19191;SDS011;9728;48.194;16.346;2023-03-01T18:33:52;12.80;;;6.95;;
19191;SDS011;9728;48.194;16.346;2023-03-01T18:38:57;13.27;;;7.73;;
19191;SDS011;9728;48.194;16.346;2023-03-01T18:44:04;11.23;;;6.72;;
19191;SDS011;9728;48.194;16.346;2023-03-01T18:49:12;13.05;;;6.28;;
19191;SDS011;9728;48.194;16.346;2023-03-01T18:54:18;13.98;;;7.28;;
19191;SDS011;9728;48.194;16.346;2023-03-01T18:59:24;15.02;;;7.28;;
19191;SDS011;9728;48.194;16.346;2023-03-01T19:04:29;13.05;;;7.68;;
19191;SDS011;9728;48.194;16.346;2023-03-01T19:09:33;12.77;;;7.68;;
19191;SDS011;9728;48.194;16.346;2023-03-01T19:14:40;12.47;;;7.73;;
19191;SDS011;9728;48.194;16.346;2023-03-01T19:19:45;14.53;;;7.63;;
19191;SDS011;9728;48.194;16.346;2023-03-01T19:24:51;13.70;;;8.17;;
19191;SDS011;9728;48.194;16.346;2023-03-01T19:29:59;15.70;;;8.60;;
19191;SDS011;9728;48.194;16.346;2023-03-01T19:35:05;14.32;;;8.25;;
19191;SDS011;9728;48.194;16.346;2023-03-01T19:40:11;17.00;;;9.77;;
19191;SDS011;9728;48.194;16.346;2023-03-01T19:45:18;16.10;;;9.10;;
19191;SDS011;9728;48.194;16.346;2023-03-01T19:50:34;15.87;;;9.20;;
19191;SDS011;9728;48.194;16.346;2023-03-01T19:55:40;14.83;;;9.03;;
19191;SDS011;9728;48.194;16.346;2023-03-01T20:00:46;15.93;;;9.27;;
19191;SDS011;9728;48.194;16.346;2023-03-01T20:06:06;18.07;;;9.17;;
19191;SDS011;9728;48.194;16.346;2023-03-01T20:11:18;14.73;;;8.63;;
19191;SDS011;9728;48.194;16.346;2023-03-01T20:16:27;15.13;;;8.80;;
19191;SDS011;9728;48.194;16.346;2023-03-01T20:21:32;11.83;;;7.77;;
19191;SDS011;9728;48.194;16.346;2023-03-01T20:26:37;16.00;;;8.30;;
19191;SDS011;9728;48.194;16.346;2023-03-01T20:31:44;13.87;;;7.57;;
19191;SDS011;9728;48.194;16.346;2023-03-01T20:36:51;15.80;;;7.20;;
19191;SDS011;9728;48.194;16.346;2023-03-01T20:41:57;11.80;;;7.03;;
19191;SDS011;9728;48.194;16.346;2023-03-01T20:47:03;12.90;;;7.10;;
19191;SDS011;9728;48.194;16.346;2023-03-01T20:52:12;12.60;;;7.67;;
19191;SDS011;9728;48.194;16.346;2023-03-01T20:57:17;13.67;;;7.70;;
19191;SDS011;9728;48.194;16.346;2023-03-01T21:02:24;15.23;;;7.50;;
19191;SDS011;9728;48.194;16.346;2023-03-01T21:07:28;15.77;;;7.97;;
19191;SDS011;9728;48.194;16.346;2023-03-01T21:12:33;13.40;;;7.73;;
19191;SDS011;9728;48.194;16.346;2023-03-01T21:17:38;11.80;;;7.23;;
19191;SDS011;9728;48.194;16.346;2023-03-01T21:22:42;13.13;;;7.53;;
19191;SDS011;9728;48.194;16.346;2023-03-01T21:27:46;14.57;;;7.57;;
19191;SDS011;9728;48.194;16.346;2023-03-01T21:32:51;12.10;;;6.47;;
19191;SDS011;9728;48.194;16.346;2023-03-01T21:37:55;15.10;;;7.30;;
19191;SDS011;9728;48.194;16.346;2023-03-01T21:42:58;16.23;;;8.40;;
19191;SDS011;9728;48.194;16.346;2023-03-01T21:48:03;14.30;;;7.67;;
19191;SDS011;9728;48.194;16.346;2023-03-01T21:53:07;14.83;;;9.37;;
19191;SDS011;9728;48.194;16.346;2023-03-01T21:58:10;15.83;;;8.87;;
19191;SDS011;9728;48.194;16.346;2023-03-01T22:03:15;16.37;;;8.50;;
19191;SDS011;9728;48.194;16.346;2023-03-01T22:08:19;18.23;;;9.60;;
19191;SDS011;9728;48.194;16.346;2023-03-01T22:13:23;17.67;;;8.87;;
19191;SDS011;9728;48.194;16.346;2023-03-01T22:18:28;15.47;;;8.93;;
19191;SDS011;9728;48.194;16.346;2023-03-01T22:23:31;18.30;;;9.57;;
19191;SDS011;9728;48.194;16.346;2023-03-01T22:28:35;17.87;;;9.60;;
19191;SDS011;9728;48.194;16.346;2023-03-01T22:33:40;17.97;;;9.10;;
19191;SDS011;9728;48.194;16.346;2023-03-01T22:38:43;21.30;;;10.03;;
19191;SDS011;9728;48.194;16.346;2023-03-01T22:43:47;19.70;;;9.63;;
19191;SDS011;9728;48.194;16.346;2023-03-01T22:48:52;16.67;;;8.50;;
19191;SDS011;9728;48.194;16.346;2023-03-01T22:53:55;17.53;;;9.20;;
19191;SDS011;9728;48.194;16.346;2023-03-01T22:59:00;15.77;;;8.90;;
19191;SDS011;9728;48.194;16.346;2023-03-01T23:04:06;17.57;;;9.90;;
19191;SDS011;9728;48.194;16.346;2023-03-01T23:09:10;20.73;;;10.50;;
19191;SDS011;9728;48.194;16.346;2023-03-01T23:14:14;22.13;;;11.10;;
19191;SDS011;9728;48.194;16.346;2023-03-01T23:19:19;16.33;;;9.13;;
19191;SDS011;9728;48.194;16.346;2023-03-01T23:24:23;20.40;;;10.60;;
19191;SDS011;9728;48.194;16.346;2023-03-01T23:29:32;19.00;;;10.87;;
19191;SDS011;9728;48.194;16.346;2023-03-01T23:34:37;21.43;;;11.20;;
19191;SDS011;9728;48.194;16.346;2023-03-01T23:39:45;21.50;;;12.27;;
19191;SDS011;9728;48.194;16.346;2023-03-01T23:44:48;23.00;;;12.23;;
19191;SDS011;9728;48.194;16.346;2023-03-01T23:49:53;21.73;;;11.50;;
19191;SDS011;9728;48.194;16.346;2023-03-01T23:54:57;19.93;;;10.87;;
